sensor_id;sensor_type;location;lat;lon;timestamp;pressure;altitude;pressure_sealevel;temperature;humidity
46534;BME280;32260;52.008;4.752;2023-01-26T00:01:22;102613.03;;;2.70;72.65
46534;BME280;32260;52.008;4.752;2023-01-26T00:03:50;102625.94;;;2.65;72.88
46534;BME280;32260;52.008;4.752;2023-01-26T00:06:18;102625.00;;;2.63;72.84
46534;BME280;32260;52.008;4.752;2023-01-26T00:08:46;102624.16;;;2.64;72.86
46534;BME280;32260;52.008;4.752;2023-01-26T00:11:15;102621.72;;;2.69;72.73
46534;BME280;32260;52.008;4.752;2023-01-26T00:13:42;102619.91;;;2.68;72.75
46534;BME280;32260;52.008;4.752;2023-01-26T00:16:10;102620.06;;;2.71;72.94
46534;BME280;32260;52.008;4.752;2023-01-26T00:18:38;102614.84;;;2.71;73.06
46534;BME280;32260;52.008;4.752;2023-01-26T00:21:07;102619.41;;;2.77;72.40
46534;BME280;32260;52.008;4.752;2023-01-26T00:23:34;102619.41;;;2.77;72.59
46534;BME280;32260;52.008;4.752;2023-01-26T00:26:01;102615.09;;;2.77;72.47
46534;BME280;32260;52.008;4.752;2023-01-26T00:28:27;102611.56;;;2.77;72.56
46534;BME280;32260;52.008;4.752;2023-01-26T00:31:00;102615.09;;;2.77;72.42
46534;BME280;32260;52.008;4.752;2023-01-26T00:33:27;102612.47;;;2.77;72.50
46534;BME280;32260;52.008;4.752;2023-01-26T00:35:54;102613.44;;;2.79;72.77
46534;BME280;32260;52.008;4.752;2023-01-26T00:38:20;102604.63;;;2.77;72.54
46534;BME280;32260;52.008;4.752;2023-01-26T00:40:46;102599.38;;;2.77;72.73
46534;BME280;32260;52.008;4.752;2023-01-26T00:43:12;102602.81;;;2.76;72.28
46534;BME280;32260;52.008;4.752;2023-01-26T00:45:39;102602.97;;;2.79;72.59
46534;BME280;32260;52.008;4.752;2023-01-26T00:48:05;102603.00;;;2.81;72.30
46534;BME280;32260;52.008;4.752;2023-01-26T00:50:32;102601.28;;;2.81;72.44
46534;BME280;32260;52.008;4.752;2023-01-26T00:52:58;102592.69;;;2.85;72.25
46534;BME280;32260;52.008;4.752;2023-01-26T00:55:25;102594.59;;;2.88;72.45
46534;BME280;32260;52.008;4.752;2023-01-26T00:57:58;102588.31;;;2.84;72.56
46534;BME280;32260;52.008;4.752;2023-01-26T01:00:25;102591.78;;;2.83;72.36
46534;BME280;32260;52.008;4.752;2023-01-26T01:02:52;102587.38;;;2.82;72.43
46534;BME280;32260;52.008;4.752;2023-01-26T01:05:18;102587.38;;;2.82;72.59
46534;BME280;32260;52.008;4.752;2023-01-26T01:07:45;102576.88;;;2.82;72.35
46534;BME280;32260;52.008;4.752;2023-01-26T01:10:11;102579.41;;;2.79;72.28
46534;BME280;32260;52.008;4.752;2023-01-26T01:12:38;102578.53;;;2.80;72.53
46534;BME280;32260;52.008;4.752;2023-01-26T01:15:04;102575.88;;;2.79;72.68
46534;BME280;32260;52.008;4.752;2023-01-26T01:17:30;102569.66;;;2.77;72.37
46534;BME280;32260;52.008;4.752;2023-01-26T01:19:57;102579.41;;;2.79;72.38
46534;BME280;32260;52.008;4.752;2023-01-26T01:22:23;102576.66;;;2.76;72.44
46534;BME280;32260;52.008;4.752;2023-01-26T01:24:49;102571.41;;;2.76;72.45
46534;BME280;32260;52.008;4.752;2023-01-26T01:27:15;102559.28;;;2.78;72.69
46534;BME280;32260;52.008;4.752;2023-01-26T01:29:41;102562.72;;;2.77;72.74
46534;BME280;32260;52.008;4.752;2023-01-26T01:32:07;102564.53;;;2.78;72.33
46534;BME280;32260;52.008;4.752;2023-01-26T01:34:33;102560.16;;;2.79;72.65
46534;BME280;32260;52.008;4.752;2023-01-26T01:37:00;102560.22;;;2.80;72.78
46534;BME280;32260;52.008;4.752;2023-01-26T01:39:26;102568.97;;;2.81;72.68
46534;BME280;32260;52.008;4.752;2023-01-26T01:41:52;102565.44;;;2.80;72.79
46534;BME280;32260;52.008;4.752;2023-01-26T01:44:20;102557.59;;;2.80;72.62
46534;BME280;32260;52.008;4.752;2023-01-26T01:47:05;102568.06;;;2.80;72.35
46534;BME280;32260;52.008;4.752;2023-01-26T01:49:41;102566.47;;;2.84;72.41
46534;BME280;32260;52.008;4.752;2023-01-26T01:52:12;102566.19;;;2.76;72.74
46534;BME280;32260;52.008;4.752;2023-01-26T01:54:44;102565.44;;;2.80;72.43
46534;BME280;32260;52.008;4.752;2023-01-26T01:57:16;102571.75;;;2.85;72.75
46534;BME280;32260;52.008;4.752;2023-01-26T01:59:56;102570.09;;;2.87;72.36
46534;BME280;32260;52.008;4.752;2023-01-26T02:02:25;102559.63;;;2.87;72.38
46534;BME280;32260;52.008;4.752;2023-01-26T02:04:51;102561.47;;;2.90;72.47
46534;BME280;32260;52.008;4.752;2023-01-26T02:07:18;102564.09;;;2.90;72.15
46534;BME280;32260;52.008;4.752;2023-01-26T02:09:45;102565.94;;;2.92;72.63
46534;BME280;32260;52.008;4.752;2023-01-26T02:12:32;102566.03;;;2.94;72.54
46534;BME280;32260;52.008;4.752;2023-01-26T02:14:59;102565.25;;;2.97;72.23
46534;BME280;32260;52.008;4.752;2023-01-26T02:17:26;102559.06;;;2.95;72.30
46534;BME280;32260;52.008;4.752;2023-01-26T02:28:18;102561.91;;;3.01;72.72
46534;BME280;32260;52.008;4.752;2023-01-26T02:30:46;102564.59;;;3.02;72.38
46534;BME280;32260;52.008;4.752;2023-01-26T02:33:21;102556.22;;;3.13;72.22
46534;BME280;32260;52.008;4.752;2023-01-26T02:35:47;102557.00;;;3.10;72.71
46534;BME280;32260;52.008;4.752;2023-01-26T02:38:13;102562.38;;;3.13;72.20
46534;BME280;32260;52.008;4.752;2023-01-26T02:40:43;102562.56;;;3.18;72.60
46534;BME280;32260;52.008;4.752;2023-01-26T02:43:13;102563.56;;;3.21;72.46
46534;BME280;32260;52.008;4.752;2023-01-26T02:45:40;102561.00;;;3.23;72.30
46534;BME280;32260;52.008;4.752;2023-01-26T02:48:08;102562.63;;;3.19;72.01
46534;BME280;32260;52.008;4.752;2023-01-26T02:50:34;102565.28;;;3.21;72.28
46534;BME280;32260;52.008;4.752;2023-01-26T02:53:01;102559.19;;;3.20;72.42
46534;BME280;32260;52.008;4.752;2023-01-26T02:55:27;102561.84;;;3.22;72.37
46534;BME280;32260;52.008;4.752;2023-01-26T02:57:56;102568.88;;;3.23;72.10
46534;BME280;32260;52.008;4.752;2023-01-26T03:00:25;102569.75;;;3.23;72.40
46534;BME280;32260;52.008;4.752;2023-01-26T03:02:55;102566.31;;;3.24;71.98
46534;BME280;32260;52.008;4.752;2023-01-26T03:05:22;102570.66;;;3.24;72.36
46534;BME280;32260;52.008;4.752;2023-01-26T03:07:48;102572.50;;;3.27;71.95
46534;BME280;32260;52.008;4.752;2023-01-26T03:10:15;102567.97;;;3.22;71.89
46534;BME280;32260;52.008;4.752;2023-01-26T03:12:42;102569.69;;;3.22;72.20
46534;BME280;32260;52.008;4.752;2023-01-26T03:15:09;102571.41;;;3.21;72.33
46534;BME280;32260;52.008;4.752;2023-01-26T03:18:04;102567.13;;;3.23;72.47
46534;BME280;32260;52.008;4.752;2023-01-26T03:20:51;102564.31;;;3.19;72.53
46534;BME280;32260;52.008;4.752;2023-01-26T03:23:37;102562.63;;;3.19;72.06
46534;BME280;32260;52.008;4.752;2023-01-26T03:26:23;102562.72;;;3.22;72.30
46534;BME280;32260;52.008;4.752;2023-01-26T03:29:09;102564.41;;;3.20;72.01
46534;BME280;32260;52.008;4.752;2023-01-26T03:31:35;102557.38;;;3.19;72.43
46534;BME280;32260;52.008;4.752;2023-01-26T03:34:01;102567.84;;;3.19;72.51
46534;BME280;32260;52.008;4.752;2023-01-26T03:36:27;102560.09;;;3.22;72.27
46534;BME280;32260;52.008;4.752;2023-01-26T03:38:53;102559.28;;;3.23;72.20
46534;BME280;32260;52.008;4.752;2023-01-26T03:41:19;102564.66;;;3.27;72.07
46534;BME280;32260;52.008;4.752;2023-01-26T03:44:05;102563.09;;;3.32;72.05
46534;BME280;32260;52.008;4.752;2023-01-26T03:46:51;102563.13;;;3.33;72.24
46534;BME280;32260;52.008;4.752;2023-01-26T03:49:37;102557.91;;;3.33;71.86
46534;BME280;32260;52.008;4.752;2023-01-26T03:52:23;102561.53;;;3.37;72.27
46534;BME280;32260;52.008;4.752;2023-01-26T03:55:09;102553.63;;;3.35;72.50
46534;BME280;32260;52.008;4.752;2023-01-26T03:57:55;102560.63;;;3.36;72.16
46534;BME280;32260;52.008;4.752;2023-01-26T04:00:21;102556.16;;;3.34;72.05
46534;BME280;32260;52.008;4.752;2023-01-26T04:02:49;102553.63;;;3.35;72.05
46534;BME280;32260;52.008;4.752;2023-01-26T04:05:35;102555.47;;;3.38;72.58
46534;BME280;32260;52.008;4.752;2023-01-26T04:08:21;102568.56;;;3.38;72.50
46534;BME280;32260;52.008;4.752;2023-01-26T04:10:52;102560.75;;;3.39;72.33
46534;BME280;32260;52.008;4.752;2023-01-26T04:13:20;102567.84;;;3.42;72.17
46534;BME280;32260;52.008;4.752;2023-01-26T04:16:09;102562.72;;;3.45;72.63
46534;BME280;32260;52.008;4.752;2023-01-26T04:18:55;102560.97;;;3.46;72.11
46534;BME280;32260;52.008;4.752;2023-01-26T04:21:41;102570.72;;;3.50;72.46
46534;BME280;32260;52.008;4.752;2023-01-26T04:24:07;102563.78;;;3.50;72.02
46534;BME280;32260;52.008;4.752;2023-01-26T04:26:39;102572.56;;;3.52;72.31
46534;BME280;32260;52.008;4.752;2023-01-26T04:29:08;102562.09;;;3.52;72.06
46534;BME280;32260;52.008;4.752;2023-01-26T04:31:34;102565.66;;;3.54;72.01
46534;BME280;32260;52.008;4.752;2023-01-26T04:34:02;102560.47;;;3.56;72.12
46534;BME280;32260;52.008;4.752;2023-01-26T04:36:29;102566.66;;;3.58;72.35
46534;BME280;32260;52.008;4.752;2023-01-26T04:38:55;102569.28;;;3.58;72.06
46534;BME280;32260;52.008;4.752;2023-01-26T04:41:22;102565.88;;;3.61;72.10
46534;BME280;32260;52.008;4.752;2023-01-26T04:43:48;102560.66;;;3.61;72.35
46534;BME280;32260;52.008;4.752;2023-01-26T04:46:14;102565.00;;;3.60;72.22
46534;BME280;32260;52.008;4.752;2023-01-26T04:48:41;102563.31;;;3.62;72.23
46534;BME280;32260;52.008;4.752;2023-01-26T04:51:16;102569.56;;;3.66;72.38
46534;BME280;32260;52.008;4.752;2023-01-26T04:53:45;102560.66;;;3.61;72.15
46534;BME280;32260;52.008;4.752;2023-01-26T04:56:28;102551.41;;;3.70;71.92
46534;BME280;32260;52.008;4.752;2023-01-26T04:58:56;102547.72;;;3.65;72.55
46534;BME280;32260;52.008;4.752;2023-01-26T05:01:23;102548.72;;;3.69;72.18
46534;BME280;32260;52.008;4.752;2023-01-26T05:03:49;102546.16;;;3.70;72.55
46534;BME280;32260;52.008;4.752;2023-01-26T05:06:15;102547.94;;;3.71;72.42
46534;BME280;32260;52.008;4.752;2023-01-26T05:08:42;102553.22;;;3.73;72.53
46534;BME280;32260;52.008;4.752;2023-01-26T05:11:08;102550.59;;;3.73;72.58
46534;BME280;32260;52.008;4.752;2023-01-26T05:13:34;102554.19;;;3.75;72.18
46534;BME280;32260;52.008;4.752;2023-01-26T05:16:02;102559.44;;;3.75;72.39
46534;BME280;32260;52.008;4.752;2023-01-26T05:18:29;102561.31;;;3.79;72.46
46534;BME280;32260;52.008;4.752;2023-01-26T05:20:56;102557.84;;;3.80;72.41
46534;BME280;32260;52.008;4.752;2023-01-26T05:23:22;102555.34;;;3.83;72.63
46534;BME280;32260;52.008;4.752;2023-01-26T05:25:48;102551.84;;;3.83;72.29
46534;BME280;32260;52.008;4.752;2023-01-26T05:28:15;102557.13;;;3.84;72.26
46534;BME280;32260;52.008;4.752;2023-01-26T05:30:41;102557.16;;;3.86;72.20
46534;BME280;32260;52.008;4.752;2023-01-26T05:33:09;102556.38;;;3.88;72.57
46534;BME280;32260;52.008;4.752;2023-01-26T05:35:35;102557.13;;;3.84;72.83
46534;BME280;32260;52.008;4.752;2023-01-26T05:38:01;102557.44;;;3.94;72.29
46534;BME280;32260;52.008;4.752;2023-01-26T05:40:27;102562.63;;;3.92;72.73
46534;BME280;32260;52.008;4.752;2023-01-26T05:42:54;102557.59;;;3.98;72.59
46534;BME280;32260;52.008;4.752;2023-01-26T05:45:20;102559.34;;;3.98;72.59
46534;BME280;32260;52.008;4.752;2023-01-26T05:47:47;102565.44;;;3.97;72.71
46534;BME280;32260;52.008;4.752;2023-01-26T05:50:15;102567.53;;;4.07;72.25
46534;BME280;32260;52.008;4.752;2023-01-26T05:52:42;102562.84;;;3.98;72.75
46534;BME280;32260;52.008;4.752;2023-01-26T05:55:09;102567.53;;;4.07;72.59
46534;BME280;32260;52.008;4.752;2023-01-26T05:57:35;102571.97;;;4.10;72.35
46534;BME280;32260;52.008;4.752;2023-01-26T06:00:03;102563.31;;;4.12;72.36
46534;BME280;32260;52.008;4.752;2023-01-26T06:02:29;102575.66;;;4.15;72.29
46534;BME280;32260;52.008;4.752;2023-01-26T06:04:55;102572.97;;;4.13;72.38
46534;BME280;32260;52.008;4.752;2023-01-26T06:07:21;102566.94;;;4.16;72.42
46534;BME280;32260;52.008;4.752;2023-01-26T06:09:47;102568.78;;;4.18;72.45
46534;BME280;32260;52.008;4.752;2023-01-26T06:12:15;102566.28;;;4.21;72.49
46534;BME280;32260;52.008;4.752;2023-01-26T06:14:42;102561.13;;;4.25;72.06
46534;BME280;32260;52.008;4.752;2023-01-26T06:17:09;102556.81;;;4.27;72.52
46534;BME280;32260;52.008;4.752;2023-01-26T06:19:35;102571.72;;;4.28;72.53
46534;BME280;32260;52.008;4.752;2023-01-26T06:22:03;102571.81;;;4.31;72.61
46534;BME280;32260;52.008;4.752;2023-01-26T06:24:29;102575.28;;;4.30;72.26
46534;BME280;32260;52.008;4.752;2023-01-26T06:26:55;102571.88;;;4.32;72.47
46534;BME280;32260;52.008;4.752;2023-01-26T06:29:21;102569.31;;;4.34;72.47
46534;BME280;32260;52.008;4.752;2023-01-26T06:31:47;102568.47;;;4.35;72.29
46534;BME280;32260;52.008;4.752;2023-01-26T06:34:14;102568.53;;;4.36;72.33
46534;BME280;32260;52.008;4.752;2023-01-26T06:36:40;102582.53;;;4.37;72.56
46534;BME280;32260;52.008;4.752;2023-01-26T06:39:07;102581.66;;;4.36;72.28
46534;BME280;32260;52.008;4.752;2023-01-26T06:41:35;102574.69;;;4.38;72.48
46534;BME280;32260;52.008;4.752;2023-01-26T06:44:01;102580.03;;;4.40;72.18
46534;BME280;32260;52.008;4.752;2023-01-26T06:46:27;102582.66;;;4.40;72.55
46534;BME280;32260;52.008;4.752;2023-01-26T06:48:53;102597.59;;;4.43;72.36
46534;BME280;32260;52.008;4.752;2023-01-26T06:53:57;102596.28;;;4.30;73.27
46534;BME280;32260;52.008;4.752;2023-01-26T06:56:24;102593.34;;;4.46;72.56
46534;BME280;32260;52.008;4.752;2023-01-26T06:58:52;102598.59;;;4.46;73.00
46534;BME280;32260;52.008;4.752;2023-01-26T07:03:54;102598.69;;;4.49;73.12
46534;BME280;32260;52.008;4.752;2023-01-26T07:06:21;102607.41;;;4.48;72.88
46534;BME280;32260;52.008;4.752;2023-01-26T07:08:47;102610.97;;;4.50;73.12
46534;BME280;32260;52.008;4.752;2023-01-26T07:11:13;102611.06;;;4.53;73.22
46534;BME280;32260;52.008;4.752;2023-01-26T07:13:43;102610.31;;;4.56;73.11
46534;BME280;32260;52.008;4.752;2023-01-26T07:16:11;102610.38;;;4.59;73.22
46534;BME280;32260;52.008;4.752;2023-01-26T07:18:38;102603.34;;;4.58;73.16
46534;BME280;32260;52.008;4.752;2023-01-26T07:21:06;102617.44;;;4.60;73.55
46534;BME280;32260;52.008;4.752;2023-01-26T07:23:34;102613.22;;;4.65;73.61
46534;BME280;32260;52.008;4.752;2023-01-26T07:26:00;102615.00;;;4.66;73.77
46534;BME280;32260;52.008;4.752;2023-01-26T07:28:27;102616.84;;;4.69;73.78
46534;BME280;32260;52.008;4.752;2023-01-26T07:30:57;102619.72;;;4.77;73.42
46534;BME280;32260;52.008;4.752;2023-01-26T07:33:23;102623.34;;;4.80;73.36
46534;BME280;32260;52.008;4.752;2023-01-26T07:35:52;102626.13;;;4.85;73.24
46534;BME280;32260;52.008;4.752;2023-01-26T07:38:18;102624.47;;;4.89;73.39
46534;BME280;32260;52.008;4.752;2023-01-26T07:40:44;102635.06;;;4.92;73.76
46534;BME280;32260;52.008;4.752;2023-01-26T07:43:11;102637.81;;;4.95;73.92
46534;BME280;32260;52.008;4.752;2023-01-26T07:45:38;102641.41;;;4.98;74.18
46534;BME280;32260;52.008;4.752;2023-01-26T07:48:04;102633.59;;;5.00;74.33
46534;BME280;32260;52.008;4.752;2023-01-26T07:50:30;102641.59;;;5.05;74.58
46534;BME280;32260;52.008;4.752;2023-01-26T07:52:59;102645.19;;;5.07;74.80
46534;BME280;32260;52.008;4.752;2023-01-26T07:55:26;102639.31;;;5.15;74.79
46534;BME280;32260;52.008;4.752;2023-01-26T07:57:53;102639.31;;;5.15;75.18
46534;BME280;32260;52.008;4.752;2023-01-26T08:00:20;102654.41;;;5.21;74.95
46534;BME280;32260;52.008;4.752;2023-01-26T08:02:49;102648.72;;;5.36;75.02
46534;BME280;32260;52.008;4.752;2023-01-26T08:05:16;102647.13;;;5.41;75.07
46534;BME280;32260;52.008;4.752;2023-01-26T08:07:43;102645.59;;;5.49;75.46
46534;BME280;32260;52.008;4.752;2023-01-26T08:10:09;102658.28;;;5.63;75.79
46534;BME280;32260;52.008;4.752;2023-01-26T08:12:37;102661.19;;;5.72;76.24
46534;BME280;32260;52.008;4.752;2023-01-26T08:15:03;102661.59;;;5.86;75.88
46534;BME280;32260;52.008;4.752;2023-01-26T08:17:30;102661.91;;;5.97;75.68
46534;BME280;32260;52.008;4.752;2023-01-26T08:19:58;102661.25;;;6.04;75.69
46534;BME280;32260;52.008;4.752;2023-01-26T08:22:25;102668.28;;;6.05;75.99
46534;BME280;32260;52.008;4.752;2023-01-26T08:24:52;102659.72;;;6.12;76.20
46534;BME280;32260;52.008;4.752;2023-01-26T08:27:18;102664.22;;;6.17;76.27
46534;BME280;32260;52.008;4.752;2023-01-26T08:29:44;102664.34;;;6.21;76.36
46534;BME280;32260;52.008;4.752;2023-01-26T08:32:10;102671.56;;;6.28;76.14
46534;BME280;32260;52.008;4.752;2023-01-26T08:34:36;102670.63;;;6.26;76.05
46534;BME280;32260;52.008;4.752;2023-01-26T08:37:02;102667.19;;;6.29;75.46
46534;BME280;32260;52.008;4.752;2023-01-26T08:39:29;102679.59;;;6.33;75.70
46534;BME280;32260;52.008;4.752;2023-01-26T08:41:55;102667.19;;;6.29;75.76
46534;BME280;32260;52.008;4.752;2023-01-26T08:44:21;102682.09;;;6.28;75.63
46534;BME280;32260;52.008;4.752;2023-01-26T08:46:47;102678.47;;;6.23;75.37
46534;BME280;32260;52.008;4.752;2023-01-26T08:49:13;102693.31;;;6.21;75.30
46534;BME280;32260;52.008;4.752;2023-01-26T08:51:39;102682.56;;;6.13;75.55
46534;BME280;32260;52.008;4.752;2023-01-26T08:54:06;102684.19;;;6.08;75.29
46534;BME280;32260;52.008;4.752;2023-01-26T08:56:33;102690.38;;;6.10;75.35
46534;BME280;32260;52.008;4.752;2023-01-26T08:59:00;102680.72;;;6.09;75.38
46534;BME280;32260;52.008;4.752;2023-01-26T09:01:26;102686.84;;;6.10;75.36
46534;BME280;32260;52.008;4.752;2023-01-26T09:03:52;102684.13;;;6.07;75.67
46534;BME280;32260;52.008;4.752;2023-01-26T09:06:20;102691.38;;;6.15;75.88
46534;BME280;32260;52.008;4.752;2023-01-26T09:08:47;102689.88;;;6.24;75.67
46534;BME280;32260;52.008;4.752;2023-01-26T09:11:14;102695.31;;;6.30;75.64
46534;BME280;32260;52.008;4.752;2023-01-26T09:13:40;102695.56;;;6.39;75.65
46534;BME280;32260;52.008;4.752;2023-01-26T09:16:14;102692.41;;;6.53;75.35
46534;BME280;32260;52.008;4.752;2023-01-26T09:18:44;102700.34;;;6.54;75.90
46534;BME280;32260;52.008;4.752;2023-01-26T09:21:10;102697.09;;;6.64;75.26
46534;BME280;32260;52.008;4.752;2023-01-26T09:23:37;102709.50;;;6.69;75.30
46534;BME280;32260;52.008;4.752;2023-01-26T09:26:04;102706.16;;;6.74;75.60
46534;BME280;32260;52.008;4.752;2023-01-26T09:28:30;102706.25;;;6.79;75.57
46534;BME280;32260;52.008;4.752;2023-01-26T09:31:01;102707.31;;;6.86;74.97
46534;BME280;32260;52.008;4.752;2023-01-26T09:33:27;102713.47;;;6.86;75.17
46534;BME280;32260;52.008;4.752;2023-01-26T09:35:53;102713.63;;;6.92;75.02
46534;BME280;32260;52.008;4.752;2023-01-26T09:38:20;102713.66;;;6.94;75.10
46534;BME280;32260;52.008;4.752;2023-01-26T09:43:34;102707.94;;;7.10;75.17
46534;BME280;32260;52.008;4.752;2023-01-26T09:49:22;102708.06;;;7.17;74.47
46534;BME280;32260;52.008;4.752;2023-01-26T09:51:56;102702.81;;;7.17;74.96
46534;BME280;32260;52.008;4.752;2023-01-26T09:57:00;102709.13;;;7.25;74.67
46534;BME280;32260;52.008;4.752;2023-01-26T09:59:33;102709.19;;;7.26;74.41
46534;BME280;32260;52.008;4.752;2023-01-26T10:04:52;102712.72;;;7.28;74.56
46534;BME280;32260;52.008;4.752;2023-01-26T10:07:21;102718.84;;;7.27;74.00
46534;BME280;32260;52.008;4.752;2023-01-26T10:09:49;102712.72;;;7.27;74.26
46534;BME280;32260;52.008;4.752;2023-01-26T10:12:34;102719.94;;;7.36;74.02
46534;BME280;32260;52.008;4.752;2023-01-26T10:17:42;102716.28;;;7.29;74.10
46534;BME280;32260;52.008;4.752;2023-01-26T10:22:59;102717.41;;;7.40;74.19
46534;BME280;32260;52.008;4.752;2023-01-26T10:25:33;102712.09;;;7.39;74.34
46534;BME280;32260;52.008;4.752;2023-01-26T10:28:18;102711.19;;;7.37;74.44
46534;BME280;32260;52.008;4.752;2023-01-26T10:30:47;102714.72;;;7.39;74.21
46534;BME280;32260;52.008;4.752;2023-01-26T10:35:53;102720.09;;;7.42;74.76
46534;BME280;32260;52.008;4.752;2023-01-26T10:43:41;102727.63;;;7.65;74.85
46534;BME280;32260;52.008;4.752;2023-01-26T10:46:23;102714.72;;;7.78;74.41
46534;BME280;32260;52.008;4.752;2023-01-26T10:48:55;102717.44;;;7.80;74.65
46534;BME280;32260;52.008;4.752;2023-01-26T10:51:26;102717.56;;;7.86;74.70
46534;BME280;32260;52.008;4.752;2023-01-26T10:54:18;102722.16;;;7.95;74.70
46534;BME280;32260;52.008;4.752;2023-01-26T10:56:49;102718.69;;;7.99;74.17
46534;BME280;32260;52.008;4.752;2023-01-26T11:00:23;102722.50;;;8.14;74.21
46534;BME280;32260;52.008;4.752;2023-01-26T11:07:48;102727.41;;;8.39;74.32
46534;BME280;32260;52.008;4.752;2023-01-26T11:13:20;102721.78;;;8.65;72.93
46534;BME280;32260;52.008;4.752;2023-01-26T11:15:50;102711.31;;;8.71;73.08
46534;BME280;32260;52.008;4.752;2023-01-26T11:18:52;102719.47;;;8.84;72.83
46534;BME280;32260;52.008;4.752;2023-01-26T11:21:24;102714.19;;;8.85;71.78
46534;BME280;32260;52.008;4.752;2023-01-26T11:24:23;102698.63;;;9.02;71.92
46534;BME280;32260;52.008;4.752;2023-01-26T11:32:57;102706.88;;;9.24;68.90
46534;BME280;32260;52.008;4.752;2023-01-26T11:41:22;102703.41;;;9.28;67.31
46534;BME280;32260;52.008;4.752;2023-01-26T11:43:59;102703.56;;;9.37;68.40
46534;BME280;32260;52.008;4.752;2023-01-26T11:49:53;102702.09;;;9.58;69.00
46534;BME280;32260;52.008;4.752;2023-01-26T11:52:46;102694.28;;;9.66;67.54
46534;BME280;32260;52.008;4.752;2023-01-26T11:55:27;102684.63;;;9.69;67.54
46534;BME280;32260;52.008;4.752;2023-01-26T11:58:12;102687.31;;;9.76;68.12
46534;BME280;32260;52.008;4.752;2023-01-26T12:00:47;102690.97;;;9.82;67.39
46534;BME280;32260;52.008;4.752;2023-01-26T12:03:29;102690.19;;;9.91;67.06
46534;BME280;32260;52.008;4.752;2023-01-26T12:06:06;102692.91;;;9.99;65.64
46534;BME280;32260;52.008;4.752;2023-01-26T12:08:40;102687.72;;;10.07;65.36
46534;BME280;32260;52.008;4.752;2023-01-26T12:11:21;102682.38;;;10.02;62.88
46534;BME280;32260;52.008;4.752;2023-01-26T12:14:53;102680.59;;;10.01;63.33
46534;BME280;32260;52.008;4.752;2023-01-26T12:20:01;102677.94;;;9.99;62.64
46534;BME280;32260;52.008;4.752;2023-01-26T12:22:29;102669.13;;;10.02;63.22
46534;BME280;32260;52.008;4.752;2023-01-26T12:31:38;102677.19;;;10.11;63.78
46534;BME280;32260;52.008;4.752;2023-01-26T12:33:22;102673.44;;;9.95;64.20
46534;BME280;32260;52.008;4.752;2023-01-26T12:39:11;102653.03;;;9.83;65.08
46534;BME280;32260;52.008;4.752;2023-01-26T12:42:09;102651.88;;;9.63;64.91
46534;BME280;32260;52.008;4.752;2023-01-26T12:47:23;102652.00;;;9.72;66.22
46534;BME280;32260;52.008;4.752;2023-01-26T12:52:39;102643.53;;;10.04;64.32
46534;BME280;32260;52.008;4.752;2023-01-26T12:57:56;102651.69;;;10.21;63.71
46534;BME280;32260;52.008;4.752;2023-01-26T13:00:27;102638.44;;;10.23;63.97
46534;BME280;32260;52.008;4.752;2023-01-26T13:03:00;102641.94;;;10.18;63.51
46534;BME280;32260;52.008;4.752;2023-01-26T13:05:32;102640.09;;;10.13;63.09
46534;BME280;32260;52.008;4.752;2023-01-26T13:11:49;102635.78;;;10.21;63.48
46534;BME280;32260;52.008;4.752;2023-01-26T13:14:22;102628.84;;;10.32;63.58
46534;BME280;32260;52.008;4.752;2023-01-26T13:16:49;102629.63;;;10.22;62.98
46534;BME280;32260;52.008;4.752;2023-01-26T13:19:49;102626.22;;;10.35;62.62
46534;BME280;32260;52.008;4.752;2023-01-26T13:25:31;102633.22;;;10.29;62.40
46534;BME280;32260;52.008;4.752;2023-01-26T13:27:55;102627.00;;;10.25;61.02
46534;BME280;32260;52.008;4.752;2023-01-26T13:33:20;102635.59;;;10.04;61.13
46534;BME280;32260;52.008;4.752;2023-01-26T13:35:48;102638.28;;;10.06;62.49
46534;BME280;32260;52.008;4.752;2023-01-26T13:38:27;102637.38;;;10.05;62.16
46534;BME280;32260;52.008;4.752;2023-01-26T13:40:56;102633.81;;;10.01;61.87
46534;BME280;32260;52.008;4.752;2023-01-26T13:44:05;102631.22;;;10.04;62.23
46534;BME280;32260;52.008;4.752;2023-01-26T13:48:57;102638.16;;;9.93;62.06
46534;BME280;32260;52.008;4.752;2023-01-26T13:51:26;102624.84;;;9.87;62.14
46534;BME280;32260;52.008;4.752;2023-01-26T13:56:35;102638.88;;;9.81;62.49
46534;BME280;32260;52.008;4.752;2023-01-26T14:01:46;102641.38;;;9.69;62.71
46534;BME280;32260;52.008;4.752;2023-01-26T14:04:17;102644.09;;;9.74;62.83
46534;BME280;32260;52.008;4.752;2023-01-26T14:06:55;102642.38;;;9.77;63.39
46534;BME280;32260;52.008;4.752;2023-01-26T14:09:25;102640.50;;;9.71;63.10
46534;BME280;32260;52.008;4.752;2023-01-26T14:11:57;102638.63;;;9.61;63.97
46534;BME280;32260;52.008;4.752;2023-01-26T14:14:26;102635.03;;;9.56;63.81
46534;BME280;32260;52.008;4.752;2023-01-26T14:16:53;102634.03;;;9.48;64.46
46534;BME280;32260;52.008;4.752;2023-01-26T14:19:21;102641.06;;;9.46;64.80
46534;BME280;32260;52.008;4.752;2023-01-26T14:24:32;102630.06;;;9.81;65.37
46534;BME280;32260;52.008;4.752;2023-01-26T14:26:59;102639.03;;;9.95;65.50
46534;BME280;32260;52.008;4.752;2023-01-26T14:29:27;102631.28;;;10.11;64.85
46534;BME280;32260;52.008;4.752;2023-01-26T14:31:56;102634.84;;;10.16;63.84
46534;BME280;32260;52.008;4.752;2023-01-26T14:34:25;102630.50;;;10.21;63.55
46534;BME280;32260;52.008;4.752;2023-01-26T14:39:43;102633.88;;;10.08;63.38
46534;BME280;32260;52.008;4.752;2023-01-26T14:42:14;102637.31;;;10.00;63.82
46534;BME280;32260;52.008;4.752;2023-01-26T14:44:41;102649.47;;;9.81;64.01
46534;BME280;32260;52.008;4.752;2023-01-26T14:52:23;102642.06;;;9.54;65.32
46534;BME280;32260;52.008;4.752;2023-01-26T14:54:53;102651.81;;;9.58;65.59
46534;BME280;32260;52.008;4.752;2023-01-26T14:57:23;102650.84;;;9.50;65.57
46534;BME280;32260;52.008;4.752;2023-01-26T14:59:55;102656.03;;;9.44;65.48
46534;BME280;32260;52.008;4.752;2023-01-26T15:13:35;102656.50;;;9.15;66.19
46534;BME280;32260;52.008;4.752;2023-01-26T15:16:13;102660.06;;;9.17;66.14
46534;BME280;32260;52.008;4.752;2023-01-26T15:18:43;102660.91;;;9.16;66.01